sensor_id;sensor_type;location;lat;lon;timestamp;temperature;humidity
78886;DHT22;68269;52.514;5.722;2023-06-14T00:01:13;21.10;48.60
78886;DHT22;68269;52.514;5.722;2023-06-14T00:03:43;21.10;48.60
78886;DHT22;68269;52.514;5.722;2023-06-14T00:06:13;21.10;48.60
78886;DHT22;68269;52.514;5.722;2023-06-14T00:08:43;21.10;48.50
78886;DHT22;68269;52.514;5.722;2023-06-14T00:11:12;21.00;48.50
78886;DHT22;68269;52.514;5.722;2023-06-14T00:13:42;21.00;48.50
78886;DHT22;68269;52.514;5.722;2023-06-14T00:16:14;21.00;48.50
78886;DHT22;68269;52.514;5.722;2023-06-14T00:18:43;20.90;48.50
78886;DHT22;68269;52.514;5.722;2023-06-14T00:21:13;20.90;48.40
78886;DHT22;68269;52.514;5.722;2023-06-14T00:23:42;20.80;48.40
78886;DHT22;68269;52.514;5.722;2023-06-14T00:26:11;20.80;48.50
78886;DHT22;68269;52.514;5.722;2023-06-14T00:28:42;20.80;48.40
78886;DHT22;68269;52.514;5.722;2023-06-14T00:31:14;20.70;48.50
78886;DHT22;68269;52.514;5.722;2023-06-14T00:33:43;20.70;48.50
78886;DHT22;68269;52.514;5.722;2023-06-14T00:36:13;20.70;48.50
78886;DHT22;68269;52.514;5.722;2023-06-14T00:38:43;20.60;48.50
78886;DHT22;68269;52.514;5.722;2023-06-14T00:41:12;20.60;48.50
78886;DHT22;68269;52.514;5.722;2023-06-14T00:43:42;20.50;48.50
78886;DHT22;68269;52.514;5.722;2023-06-14T00:46:14;20.50;48.50
78886;DHT22;68269;52.514;5.722;2023-06-14T00:48:43;20.50;48.60
78886;DHT22;68269;52.514;5.722;2023-06-14T00:51:13;20.40;48.60
78886;DHT22;68269;52.514;5.722;2023-06-14T00:53:42;20.30;48.60
78886;DHT22;68269;52.514;5.722;2023-06-14T00:56:13;20.30;48.60
78886;DHT22;68269;52.514;5.722;2023-06-14T00:58:43;20.30;48.70
78886;DHT22;68269;52.514;5.722;2023-06-14T01:01:15;20.30;48.70
78886;DHT22;68269;52.514;5.722;2023-06-14T01:03:44;20.20;48.60
78886;DHT22;68269;52.514;5.722;2023-06-14T01:06:20;20.20;48.60
78886;DHT22;68269;52.514;5.722;2023-06-14T01:09:01;20.10;48.70
78886;DHT22;68269;52.514;5.722;2023-06-14T01:11:37;20.10;48.60
78886;DHT22;68269;52.514;5.722;2023-06-14T01:14:08;20.00;48.60
78886;DHT22;68269;52.514;5.722;2023-06-14T01:16:41;20.00;48.60
78886;DHT22;68269;52.514;5.722;2023-06-14T01:19:11;20.00;48.70
78886;DHT22;68269;52.514;5.722;2023-06-14T01:21:41;20.00;48.60
78886;DHT22;68269;52.514;5.722;2023-06-14T01:24:13;19.90;48.70
78886;DHT22;68269;52.514;5.722;2023-06-14T01:26:42;19.90;48.70
78886;DHT22;68269;52.514;5.722;2023-06-14T01:29:13;19.80;48.80
78886;DHT22;68269;52.514;5.722;2023-06-14T01:31:45;19.70;48.80
78886;DHT22;68269;52.514;5.722;2023-06-14T01:34:16;19.70;48.80
78886;DHT22;68269;52.514;5.722;2023-06-14T01:36:45;19.60;48.90
78886;DHT22;68269;52.514;5.722;2023-06-14T01:39:18;19.60;48.90
78886;DHT22;68269;52.514;5.722;2023-06-14T01:41:49;19.50;49.00
78886;DHT22;68269;52.514;5.722;2023-06-14T01:44:19;19.50;49.00
78886;DHT22;68269;52.514;5.722;2023-06-14T01:46:49;19.50;49.10
78886;DHT22;68269;52.514;5.722;2023-06-14T01:49:18;19.40;49.10
78886;DHT22;68269;52.514;5.722;2023-06-14T01:51:49;19.40;49.10
78886;DHT22;68269;52.514;5.722;2023-06-14T01:54:21;19.30;49.10
78886;DHT22;68269;52.514;5.722;2023-06-14T01:56:52;19.30;49.20
78886;DHT22;68269;52.514;5.722;2023-06-14T01:59:21;19.20;49.30
78886;DHT22;68269;52.514;5.722;2023-06-14T02:01:50;19.20;49.30
78886;DHT22;68269;52.514;5.722;2023-06-14T02:04:20;19.20;49.30
78886;DHT22;68269;52.514;5.722;2023-06-14T02:06:49;19.10;49.40
78886;DHT22;68269;52.514;5.722;2023-06-14T02:09:21;19.00;49.50
78886;DHT22;68269;52.514;5.722;2023-06-14T02:11:50;19.00;49.50
78886;DHT22;68269;52.514;5.722;2023-06-14T02:14:20;18.90;49.50
78886;DHT22;68269;52.514;5.722;2023-06-14T02:16:50;18.90;49.60
78886;DHT22;68269;52.514;5.722;2023-06-14T02:19:20;18.90;49.60
78886;DHT22;68269;52.514;5.722;2023-06-14T02:21:49;18.90;49.70
78886;DHT22;68269;52.514;5.722;2023-06-14T02:24:21;18.80;49.70
78886;DHT22;68269;52.514;5.722;2023-06-14T02:26:50;18.80;49.80
78886;DHT22;68269;52.514;5.722;2023-06-14T02:29:19;18.70;49.90
78886;DHT22;68269;52.514;5.722;2023-06-14T02:31:49;18.70;49.90
78886;DHT22;68269;52.514;5.722;2023-06-14T02:34:21;18.60;50.00
78886;DHT22;68269;52.514;5.722;2023-06-14T02:36:50;18.60;50.00
78886;DHT22;68269;52.514;5.722;2023-06-14T02:39:22;18.50;50.10
78886;DHT22;68269;52.514;5.722;2023-06-14T02:41:52;18.40;50.20
78886;DHT22;68269;52.514;5.722;2023-06-14T02:44:24;18.40;50.20
78886;DHT22;68269;52.514;5.722;2023-06-14T02:46:54;18.40;50.30
78886;DHT22;68269;52.514;5.722;2023-06-14T02:49:25;18.30;50.30
78886;DHT22;68269;52.514;5.722;2023-06-14T02:51:55;18.30;50.40
78886;DHT22;68269;52.514;5.722;2023-06-14T02:54:27;18.20;50.40
78886;DHT22;68269;52.514;5.722;2023-06-14T02:56:56;18.20;50.50
78886;DHT22;68269;52.514;5.722;2023-06-14T02:59:26;18.20;50.50
78886;DHT22;68269;52.514;5.722;2023-06-14T03:01:56;18.10;50.60
78886;DHT22;68269;52.514;5.722;2023-06-14T03:04:26;18.10;50.70
78886;DHT22;68269;52.514;5.722;2023-06-14T03:06:55;18.00;50.70
78886;DHT22;68269;52.514;5.722;2023-06-14T03:09:28;18.00;50.70
78886;DHT22;68269;52.514;5.722;2023-06-14T03:11:57;18.00;50.80
78886;DHT22;68269;52.514;5.722;2023-06-14T03:14:27;18.00;50.80
78886;DHT22;68269;52.514;5.722;2023-06-14T03:16:57;18.00;50.80
78886;DHT22;68269;52.514;5.722;2023-06-14T03:19:28;18.00;50.90
78886;DHT22;68269;52.514;5.722;2023-06-14T03:21:58;18.00;50.90
78886;DHT22;68269;52.514;5.722;2023-06-14T03:24:32;17.80;51.00
78886;DHT22;68269;52.514;5.722;2023-06-14T03:27:06;17.80;51.10
78886;DHT22;68269;52.514;5.722;2023-06-14T03:29:37;17.80;51.20
78886;DHT22;68269;52.514;5.722;2023-06-14T03:32:08;17.80;51.20
78886;DHT22;68269;52.514;5.722;2023-06-14T03:34:40;17.80;51.30
78886;DHT22;68269;52.514;5.722;2023-06-14T03:37:16;17.70;51.30
78886;DHT22;68269;52.514;5.722;2023-06-14T03:39:49;17.70;51.40
78886;DHT22;68269;52.514;5.722;2023-06-14T03:42:22;17.60;51.50
78886;DHT22;68269;52.514;5.722;2023-06-14T03:44:51;17.60;51.50
78886;DHT22;68269;52.514;5.722;2023-06-14T03:47:23;17.60;51.50
78886;DHT22;68269;52.514;5.722;2023-06-14T03:49:53;17.60;51.50
78886;DHT22;68269;52.514;5.722;2023-06-14T03:52:22;17.60;51.70
78886;DHT22;68269;52.514;5.722;2023-06-14T03:54:55;17.60;51.70
78886;DHT22;68269;52.514;5.722;2023-06-14T03:57:26;17.60;51.80
78886;DHT22;68269;52.514;5.722;2023-06-14T03:59:56;17.60;51.80
78886;DHT22;68269;52.514;5.722;2023-06-14T04:02:27;17.50;51.90
78886;DHT22;68269;52.514;5.722;2023-06-14T04:04:58;17.50;51.90
78886;DHT22;68269;52.514;5.722;2023-06-14T04:07:28;17.60;52.00
78886;DHT22;68269;52.514;5.722;2023-06-14T04:10:00;17.50;52.00
78886;DHT22;68269;52.514;5.722;2023-06-14T04:12:29;17.50;52.10
78886;DHT22;68269;52.514;5.722;2023-06-14T04:14:59;17.50;52.10
78886;DHT22;68269;52.514;5.722;2023-06-14T04:17:30;17.50;52.20
78886;DHT22;68269;52.514;5.722;2023-06-14T04:20:01;17.60;52.20
78886;DHT22;68269;52.514;5.722;2023-06-14T04:22:34;17.60;52.20
78886;DHT22;68269;52.514;5.722;2023-06-14T04:25:08;17.60;52.30
78886;DHT22;68269;52.514;5.722;2023-06-14T04:27:39;17.60;52.40
78886;DHT22;68269;52.514;5.722;2023-06-14T04:30:09;17.60;52.40
78886;DHT22;68269;52.514;5.722;2023-06-14T04:32:47;17.60;52.50
78886;DHT22;68269;52.514;5.722;2023-06-14T04:35:20;17.60;52.40
78886;DHT22;68269;52.514;5.722;2023-06-14T04:37:50;17.60;52.50
78886;DHT22;68269;52.514;5.722;2023-06-14T04:40:22;17.60;52.50
78886;DHT22;68269;52.514;5.722;2023-06-14T04:42:52;17.60;52.60
78886;DHT22;68269;52.514;5.722;2023-06-14T04:45:22;17.60;52.70
78886;DHT22;68269;52.514;5.722;2023-06-14T04:47:59;17.60;52.70
78886;DHT22;68269;52.514;5.722;2023-06-14T04:50:28;17.70;52.70
78886;DHT22;68269;52.514;5.722;2023-06-14T04:52:59;17.70;52.70
78886;DHT22;68269;52.514;5.722;2023-06-14T04:55:31;17.80;52.80
78886;DHT22;68269;52.514;5.722;2023-06-14T04:58:03;17.80;52.90
78886;DHT22;68269;52.514;5.722;2023-06-14T05:00:32;17.80;52.90
78886;DHT22;68269;52.514;5.722;2023-06-14T05:03:03;17.80;52.90
78886;DHT22;68269;52.514;5.722;2023-06-14T05:05:33;17.80;53.00
78886;DHT22;68269;52.514;5.722;2023-06-14T05:08:02;17.90;53.00
78886;DHT22;68269;52.514;5.722;2023-06-14T05:10:35;17.90;53.00
78886;DHT22;68269;52.514;5.722;2023-06-14T05:13:05;17.90;53.10
78886;DHT22;68269;52.514;5.722;2023-06-14T05:15:34;17.90;53.10
78886;DHT22;68269;52.514;5.722;2023-06-14T05:18:03;18.00;53.10
78886;DHT22;68269;52.514;5.722;2023-06-14T05:20:34;18.00;53.20
78886;DHT22;68269;52.514;5.722;2023-06-14T05:23:04;18.00;53.30
78886;DHT22;68269;52.514;5.722;2023-06-14T05:25:36;18.00;53.20
78886;DHT22;68269;52.514;5.722;2023-06-14T05:28:05;18.10;53.30
78886;DHT22;68269;52.514;5.722;2023-06-14T05:30:34;18.10;53.30
78886;DHT22;68269;52.514;5.722;2023-06-14T05:33:04;18.10;53.40
78886;DHT22;68269;52.514;5.722;2023-06-14T05:35:33;18.20;53.40
78886;DHT22;68269;52.514;5.722;2023-06-14T05:38:04;18.20;53.40
78886;DHT22;68269;52.514;5.722;2023-06-14T05:40:36;18.30;53.50
78886;DHT22;68269;52.514;5.722;2023-06-14T05:43:05;18.30;53.60
78886;DHT22;68269;52.514;5.722;2023-06-14T05:45:35;18.30;53.60
78886;DHT22;68269;52.514;5.722;2023-06-14T05:48:04;18.30;53.50
78886;DHT22;68269;52.514;5.722;2023-06-14T05:50:33;18.30;53.60
78886;DHT22;68269;52.514;5.722;2023-06-14T05:53:03;18.30;53.60
78886;DHT22;68269;52.514;5.722;2023-06-14T05:55:32;18.40;53.70
78886;DHT22;68269;52.514;5.722;2023-06-14T05:58:04;18.40;53.70
78886;DHT22;68269;52.514;5.722;2023-06-14T06:00:34;18.50;53.70
78886;DHT22;68269;52.514;5.722;2023-06-14T06:03:03;18.50;53.60
78886;DHT22;68269;52.514;5.722;2023-06-14T06:05:34;18.60;53.70
78886;DHT22;68269;52.514;5.722;2023-06-14T06:08:04;18.60;53.70
78886;DHT22;68269;52.514;5.722;2023-06-14T06:10:33;18.60;53.80
78886;DHT22;68269;52.514;5.722;2023-06-14T06:13:05;18.70;53.80
78886;DHT22;68269;52.514;5.722;2023-06-14T06:15:34;18.80;53.70
78886;DHT22;68269;52.514;5.722;2023-06-14T06:18:03;18.90;53.70
78886;DHT22;68269;52.514;5.722;2023-06-14T06:20:33;18.90;53.60
78886;DHT22;68269;52.514;5.722;2023-06-14T06:23:02;19.00;53.60
78886;DHT22;68269;52.514;5.722;2023-06-14T06:25:32;19.10;53.60
78886;DHT22;68269;52.514;5.722;2023-06-14T06:28:04;19.20;53.50
78886;DHT22;68269;52.514;5.722;2023-06-14T06:30:33;19.30;53.50
78886;DHT22;68269;52.514;5.722;2023-06-14T06:33:03;19.30;53.50
78886;DHT22;68269;52.514;5.722;2023-06-14T06:35:32;19.40;53.40
78886;DHT22;68269;52.514;5.722;2023-06-14T06:38:01;19.50;53.40
78886;DHT22;68269;52.514;5.722;2023-06-14T06:40:31;19.50;53.30
78886;DHT22;68269;52.514;5.722;2023-06-14T06:43:00;19.70;53.20
78886;DHT22;68269;52.514;5.722;2023-06-14T06:45:32;19.70;53.20
78886;DHT22;68269;52.514;5.722;2023-06-14T06:48:01;19.90;53.20
78886;DHT22;68269;52.514;5.722;2023-06-14T06:50:30;19.90;53.10
78886;DHT22;68269;52.514;5.722;2023-06-14T06:53:00;20.00;53.00
78886;DHT22;68269;52.514;5.722;2023-06-14T06:55:29;20.10;52.90
78886;DHT22;68269;52.514;5.722;2023-06-14T06:57:58;20.10;52.80
78886;DHT22;68269;52.514;5.722;2023-06-14T07:00:33;20.30;52.70
78886;DHT22;68269;52.514;5.722;2023-06-14T07:03:02;20.30;52.60
78886;DHT22;68269;52.514;5.722;2023-06-14T07:05:32;20.30;52.60
78886;DHT22;68269;52.514;5.722;2023-06-14T07:08:01;20.50;52.50
78886;DHT22;68269;52.514;5.722;2023-06-14T07:10:30;20.50;52.50
78886;DHT22;68269;52.514;5.722;2023-06-14T07:13:00;20.60;52.40
78886;DHT22;68269;52.514;5.722;2023-06-14T07:15:30;20.70;52.30
78886;DHT22;68269;52.514;5.722;2023-06-14T07:18:02;20.70;52.20
78886;DHT22;68269;52.514;5.722;2023-06-14T07:20:33;20.80;52.10
78886;DHT22;68269;52.514;5.722;2023-06-14T07:23:04;20.90;52.10
78886;DHT22;68269;52.514;5.722;2023-06-14T07:25:34;21.00;51.90
78886;DHT22;68269;52.514;5.722;2023-06-14T07:28:03;21.00;51.80
78886;DHT22;68269;52.514;5.722;2023-06-14T07:30:33;21.10;51.70
78886;DHT22;68269;52.514;5.722;2023-06-14T07:33:05;21.10;51.60
78886;DHT22;68269;52.514;5.722;2023-06-14T07:35:34;21.20;51.50
78886;DHT22;68269;52.514;5.722;2023-06-14T07:38:04;21.30;51.40
78886;DHT22;68269;52.514;5.722;2023-06-14T07:40:33;21.40;51.30
78886;DHT22;68269;52.514;5.722;2023-06-14T07:43:02;21.50;51.30
78886;DHT22;68269;52.514;5.722;2023-06-14T07:45:32;21.50;51.20
78886;DHT22;68269;52.514;5.722;2023-06-14T07:48:01;21.70;51.20
78886;DHT22;68269;52.514;5.722;2023-06-14T07:50:33;21.70;51.00
78886;DHT22;68269;52.514;5.722;2023-06-14T07:53:02;21.80;50.80
78886;DHT22;68269;52.514;5.722;2023-06-14T07:55:31;21.90;50.70
78886;DHT22;68269;52.514;5.722;2023-06-14T07:58:03;21.90;50.70
78886;DHT22;68269;52.514;5.722;2023-06-14T08:00:32;21.90;50.60
78886;DHT22;68269;52.514;5.722;2023-06-14T08:03:02;22.00;50.50
78886;DHT22;68269;52.514;5.722;2023-06-14T08:05:34;22.10;50.40
78886;DHT22;68269;52.514;5.722;2023-06-14T08:08:03;22.20;50.20
78886;DHT22;68269;52.514;5.722;2023-06-14T08:10:33;22.20;50.10
78886;DHT22;68269;52.514;5.722;2023-06-14T08:13:02;22.30;50.10
78886;DHT22;68269;52.514;5.722;2023-06-14T08:15:31;22.40;50.00
78886;DHT22;68269;52.514;5.722;2023-06-14T08:18:01;22.50;49.80
78886;DHT22;68269;52.514;5.722;2023-06-14T08:20:33;22.50;49.70
78886;DHT22;68269;52.514;5.722;2023-06-14T08:23:02;22.60;49.70
78886;DHT22;68269;52.514;5.722;2023-06-14T08:25:32;22.70;49.60
78886;DHT22;68269;52.514;5.722;2023-06-14T08:28:01;22.80;49.50
78886;DHT22;68269;52.514;5.722;2023-06-14T08:30:31;22.80;49.40
78886;DHT22;68269;52.514;5.722;2023-06-14T08:33:00;22.90;49.30
78886;DHT22;68269;52.514;5.722;2023-06-14T08:35:29;22.90;49.30
78886;DHT22;68269;52.514;5.722;2023-06-14T08:38:01;23.00;49.30
78886;DHT22;68269;52.514;5.722;2023-06-14T08:40:31;23.10;49.30
78886;DHT22;68269;52.514;5.722;2023-06-14T08:43:00;23.20;49.20
78886;DHT22;68269;52.514;5.722;2023-06-14T08:45:29;23.30;49.10
78886;DHT22;68269;52.514;5.722;2023-06-14T08:47:59;23.30;49.00
78886;DHT22;68269;52.514;5.722;2023-06-14T08:50:29;23.40;48.90
78886;DHT22;68269;52.514;5.722;2023-06-14T08:53:03;23.40;48.80
78886;DHT22;68269;52.514;5.722;2023-06-14T08:55:32;23.50;48.70
78886;DHT22;68269;52.514;5.722;2023-06-14T08:58:04;23.60;48.70
78886;DHT22;68269;52.514;5.722;2023-06-14T09:00:35;23.60;48.60
78886;DHT22;68269;52.514;5.722;2023-06-14T09:03:07;23.60;48.60
78886;DHT22;68269;52.514;5.722;2023-06-14T09:05:39;23.80;48.60
78886;DHT22;68269;52.514;5.722;2023-06-14T09:08:11;23.90;48.50
78886;DHT22;68269;52.514;5.722;2023-06-14T09:10:40;24.00;48.40
78886;DHT22;68269;52.514;5.722;2023-06-14T09:13:10;24.00;48.30
78886;DHT22;68269;52.514;5.722;2023-06-14T09:15:39;24.00;48.30
78886;DHT22;68269;52.514;5.722;2023-06-14T09:18:09;24.00;48.40
78886;DHT22;68269;52.514;5.722;2023-06-14T09:20:38;24.20;48.30
78886;DHT22;68269;52.514;5.722;2023-06-14T09:23:07;24.20;48.30
78886;DHT22;68269;52.514;5.722;2023-06-14T09:25:46;24.20;48.20
78886;DHT22;68269;52.514;5.722;2023-06-14T09:28:15;24.40;48.10
78886;DHT22;68269;52.514;5.722;2023-06-14T09:30:46;24.40;48.00
78886;DHT22;68269;52.514;5.722;2023-06-14T09:33:17;24.50;48.00
78886;DHT22;68269;52.514;5.722;2023-06-14T09:35:47;24.50;48.00
78886;DHT22;68269;52.514;5.722;2023-06-14T09:38:19;24.60;48.00
78886;DHT22;68269;52.514;5.722;2023-06-14T09:40:54;24.70;48.00
78886;DHT22;68269;52.514;5.722;2023-06-14T09:43:25;24.80;48.00
78886;DHT22;68269;52.514;5.722;2023-06-14T09:45:55;24.80;48.00
78886;DHT22;68269;52.514;5.722;2023-06-14T09:48:24;24.90;47.90
78886;DHT22;68269;52.514;5.722;2023-06-14T09:50:55;25.00;47.80
78886;DHT22;68269;52.514;5.722;2023-06-14T09:53:26;25.00;47.60
78886;DHT22;68269;52.514;5.722;2023-06-14T09:55:59;25.00;47.50
78886;DHT22;68269;52.514;5.722;2023-06-14T09:58:30;25.10;47.40
78886;DHT22;68269;52.514;5.722;2023-06-14T10:00:59;25.20;47.30
78886;DHT22;68269;52.514;5.722;2023-06-14T10:03:30;25.30;47.20
78886;DHT22;68269;52.514;5.722;2023-06-14T10:06:02;25.30;47.10
78886;DHT22;68269;52.514;5.722;2023-06-14T10:08:32;25.40;47.10
78886;DHT22;68269;52.514;5.722;2023-06-14T10:11:06;25.50;47.10
78886;DHT22;68269;52.514;5.722;2023-06-14T10:13:35;25.50;46.90
78886;DHT22;68269;52.514;5.722;2023-06-14T10:16:09;25.60;47.00
78886;DHT22;68269;52.514;5.722;2023-06-14T10:18:45;25.60;46.80
78886;DHT22;68269;52.514;5.722;2023-06-14T10:21:21;25.60;46.60
78886;DHT22;68269;52.514;5.722;2023-06-14T10:23:51;25.70;46.50
78886;DHT22;68269;52.514;5.722;2023-06-14T10:26:24;25.80;46.40
78886;DHT22;68269;52.514;5.722;2023-06-14T10:28:58;25.80;46.10
78886;DHT22;68269;52.514;5.722;2023-06-14T10:31:41;25.80;46.10
78886;DHT22;68269;52.514;5.722;2023-06-14T10:34:11;26.00;46.10
78886;DHT22;68269;52.514;5.722;2023-06-14T10:36:42;26.00;46.00
78886;DHT22;68269;52.514;5.722;2023-06-14T10:39:15;26.10;45.80
78886;DHT22;68269;52.514;5.722;2023-06-14T10:41:56;26.10;45.70
78886;DHT22;68269;52.514;5.722;2023-06-14T10:44:41;26.20;45.70
78886;DHT22;68269;52.514;5.722;2023-06-14T10:47:20;26.20;45.70
78886;DHT22;68269;52.514;5.722;2023-06-14T10:49:52;26.40;45.70
78886;DHT22;68269;52.514;5.722;2023-06-14T10:52:23;26.40;45.60
78886;DHT22;68269;52.514;5.722;2023-06-14T10:55:07;26.40;45.50
78886;DHT22;68269;52.514;5.722;2023-06-14T10:57:44;26.50;45.40
78886;DHT22;68269;52.514;5.722;2023-06-14T11:00:18;26.60;45.40
78886;DHT22;68269;52.514;5.722;2023-06-14T11:03:31;26.70;45.20
78886;DHT22;68269;52.514;5.722;2023-06-14T11:06:14;26.70;45.20
78886;DHT22;68269;52.514;5.722;2023-06-14T11:09:09;26.80;45.10
78886;DHT22;68269;52.514;5.722;2023-06-14T11:11:42;26.90;45.10
78886;DHT22;68269;52.514;5.722;2023-06-14T11:14:15;27.00;45.10
78886;DHT22;68269;52.514;5.722;2023-06-14T11:16:48;27.10;44.90
78886;DHT22;68269;52.514;5.722;2023-06-14T11:19:17;27.20;44.80
78886;DHT22;68269;52.514;5.722;2023-06-14T11:21:47;27.20;44.80
78886;DHT22;68269;52.514;5.722;2023-06-14T11:24:17;27.30;44.70
78886;DHT22;68269;52.514;5.722;2023-06-14T11:26:47;27.40;44.60
78886;DHT22;68269;52.514;5.722;2023-06-14T11:29:20;27.40;44.50
78886;DHT22;68269;52.514;5.722;2023-06-14T11:31:50;27.50;44.20
78886;DHT22;68269;52.514;5.722;2023-06-14T11:34:20;27.50;44.10
78886;DHT22;68269;52.514;5.722;2023-06-14T11:36:49;27.50;44.00
78886;DHT22;68269;52.514;5.722;2023-06-14T11:39:24;27.60;43.90
78886;DHT22;68269;52.514;5.722;2023-06-14T11:41:54;27.70;43.70
78886;DHT22;68269;52.514;5.722;2023-06-14T11:44:32;27.80;43.70
78886;DHT22;68269;52.514;5.722;2023-06-14T11:47:04;27.80;43.40
78886;DHT22;68269;52.514;5.722;2023-06-14T11:49:35;27.80;43.50
78886;DHT22;68269;52.514;5.722;2023-06-14T11:52:05;27.90;43.40
78886;DHT22;68269;52.514;5.722;2023-06-14T11:54:35;28.00;43.40
78886;DHT22;68269;52.514;5.722;2023-06-14T11:57:06;28.10;43.10
78886;DHT22;68269;52.514;5.722;2023-06-14T11:59:41;28.10;42.90
78886;DHT22;68269;52.514;5.722;2023-06-14T12:02:14;28.10;42.90
78886;DHT22;68269;52.514;5.722;2023-06-14T12:04:44;28.20;42.80
78886;DHT22;68269;52.514;5.722;2023-06-14T12:07:14;28.30;42.70
78886;DHT22;68269;52.514;5.722;2023-06-14T12:10:03;28.30;42.80
78886;DHT22;68269;52.514;5.722;2023-06-14T12:12:36;28.40;42.60
78886;DHT22;68269;52.514;5.722;2023-06-14T12:15:09;28.50;42.70
78886;DHT22;68269;52.514;5.722;2023-06-14T12:17:41;28.60;42.50
78886;DHT22;68269;52.514;5.722;2023-06-14T12:20:13;28.60;42.40
78886;DHT22;68269;52.514;5.722;2023-06-14T12:22:51;28.60;42.30
78886;DHT22;68269;52.514;5.722;2023-06-14T12:25:27;28.70;42.20
78886;DHT22;68269;52.514;5.722;2023-06-14T12:27:57;28.70;42.20
78886;DHT22;68269;52.514;5.722;2023-06-14T12:30:29;28.90;42.10
78886;DHT22;68269;52.514;5.722;2023-06-14T12:32:59;28.90;42.00
78886;DHT22;68269;52.514;5.722;2023-06-14T12:35:28;29.00;41.90
78886;DHT22;68269;52.514;5.722;2023-06-14T12:37:57;29.00;41.70
78886;DHT22;68269;52.514;5.722;2023-06-14T12:40:27;29.00;41.60
78886;DHT22;68269;52.514;5.722;2023-06-14T12:42:56;29.00;41.70
78886;DHT22;68269;52.514;5.722;2023-06-14T12:45:25;29.10;41.60
78886;DHT22;68269;52.514;5.722;2023-06-14T12:47:57;29.20;41.60
78886;DHT22;68269;52.514;5.722;2023-06-14T12:50:27;29.20;41.50
78886;DHT22;68269;52.514;5.722;2023-06-14T12:52:56;29.10;41.40
78886;DHT22;68269;52.514;5.722;2023-06-14T12:55:25;29.10;41.30
78886;DHT22;68269;52.514;5.722;2023-06-14T12:57:55;29.00;41.40
78886;DHT22;68269;52.514;5.722;2023-06-14T13:00:24;29.10;41.40
78886;DHT22;68269;52.514;5.722;2023-06-14T13:02:59;29.10;41.20
78886;DHT22;68269;52.514;5.722;2023-06-14T13:05:28;29.10;41.40
78886;DHT22;68269;52.514;5.722;2023-06-14T13:07:57;29.20;41.30
78886;DHT22;68269;52.514;5.722;2023-06-14T13:10:27;29.20;41.30
78886;DHT22;68269;52.514;5.722;2023-06-14T13:12:56;29.20;41.20
78886;DHT22;68269;52.514;5.722;2023-06-14T13:15:26;29.30;41.10
78886;DHT22;68269;52.514;5.722;2023-06-14T13:17:58;29.30;41.10
78886;DHT22;68269;52.514;5.722;2023-06-14T13:20:29;29.30;41.00
78886;DHT22;68269;52.514;5.722;2023-06-14T13:22:59;29.30;41.00
78886;DHT22;68269;52.514;5.722;2023-06-14T13:25:30;29.40;41.00
78886;DHT22;68269;52.514;5.722;2023-06-14T13:27:59;29.50;40.90
78886;DHT22;68269;52.514;5.722;2023-06-14T13:30:29;29.50;40.80
78886;DHT22;68269;52.514;5.722;2023-06-14T13:33:01;29.50;40.80
78886;DHT22;68269;52.514;5.722;2023-06-14T13:35:30;29.50;40.80
78886;DHT22;68269;52.514;5.722;2023-06-14T13:38:00;29.60;40.70
78886;DHT22;68269;52.514;5.722;2023-06-14T13:40:29;29.60;40.60
78886;DHT22;68269;52.514;5.722;2023-06-14T13:42:58;29.70;40.70
78886;DHT22;68269;52.514;5.722;2023-06-14T13:45:28;29.70;40.60
78886;DHT22;68269;52.514;5.722;2023-06-14T13:47:59;29.70;40.60
78886;DHT22;68269;52.514;5.722;2023-06-14T13:50:29;29.70;40.60
78886;DHT22;68269;52.514;5.722;2023-06-14T13:52:58;29.70;40.50
78886;DHT22;68269;52.514;5.722;2023-06-14T13:55:28;29.70;40.60
78886;DHT22;68269;52.514;5.722;2023-06-14T13:57:57;29.70;40.50
78886;DHT22;68269;52.514;5.722;2023-06-14T14:00:26;29.70;40.50
78886;DHT22;68269;52.514;5.722;2023-06-14T14:02:55;29.80;40.40
78886;DHT22;68269;52.514;5.722;2023-06-14T14:05:28;29.80;40.30
78886;DHT22;68269;52.514;5.722;2023-06-14T14:07:59;29.80;40.30
78886;DHT22;68269;52.514;5.722;2023-06-14T14:10:28;29.80;40.40
78886;DHT22;68269;52.514;5.722;2023-06-14T14:12:57;29.90;40.40
78886;DHT22;68269;52.514;5.722;2023-06-14T14:15:27;29.90;40.40
78886;DHT22;68269;52.514;5.722;2023-06-14T14:18:00;29.90;40.50
78886;DHT22;68269;52.514;5.722;2023-06-14T14:20:32;29.90;40.30
78886;DHT22;68269;52.514;5.722;2023-06-14T14:23:02;29.90;40.30
78886;DHT22;68269;52.514;5.722;2023-06-14T14:25:31;29.90;40.40
78886;DHT22;68269;52.514;5.722;2023-06-14T14:28:00;30.00;40.30
78886;DHT22;68269;52.514;5.722;2023-06-14T14:30:30;30.00;40.20
78886;DHT22;68269;52.514;5.722;2023-06-14T14:32:59;30.00;40.10
78886;DHT22;68269;52.514;5.722;2023-06-14T14:35:31;30.00;40.10
78886;DHT22;68269;52.514;5.722;2023-06-14T14:38:01;30.00;40.00
78886;DHT22;68269;52.514;5.722;2023-06-14T14:40:31;30.00;40.00
78886;DHT22;68269;52.514;5.722;2023-06-14T14:43:01;30.10;40.00
78886;DHT22;68269;52.514;5.722;2023-06-14T14:45:30;30.00;40.00
78886;DHT22;68269;52.514;5.722;2023-06-14T14:48:00;30.10;40.00
78886;DHT22;68269;52.514;5.722;2023-06-14T14:50:32;30.10;40.10
78886;DHT22;68269;52.514;5.722;2023-06-14T14:53:02;30.20;40.10
78886;DHT22;68269;52.514;5.722;2023-06-14T14:55:31;30.30;40.10
78886;DHT22;68269;52.514;5.722;2023-06-14T14:58:03;30.30;39.90
78886;DHT22;68269;52.514;5.722;2023-06-14T15:00:33;30.30;40.10
78886;DHT22;68269;52.514;5.722;2023-06-14T15:03:02;30.20;40.00
78886;DHT22;68269;52.514;5.722;2023-06-14T15:05:34;30.20;39.90
78886;DHT22;68269;52.514;5.722;2023-06-14T15:08:04;30.10;39.80
78886;DHT22;68269;52.514;5.722;2023-06-14T15:10:38;30.10;40.00
78886;DHT22;68269;52.514;5.722;2023-06-14T15:13:09;30.10;39.90
78886;DHT22;68269;52.514;5.722;2023-06-14T15:15:38;30.10;39.90
78886;DHT22;68269;52.514;5.722;2023-06-14T15:18:08;30.10;39.90
78886;DHT22;68269;52.514;5.722;2023-06-14T15:20:39;30.10;39.80
78886;DHT22;68269;52.514;5.722;2023-06-14T15:23:09;30.10;39.80
78886;DHT22;68269;52.514;5.722;2023-06-14T15:25:41;30.10;39.90
78886;DHT22;68269;52.514;5.722;2023-06-14T15:28:10;30.10;40.00
78886;DHT22;68269;52.514;5.722;2023-06-14T15:30:39;30.10;40.00
78886;DHT22;68269;52.514;5.722;2023-06-14T15:33:08;30.10;40.00
78886;DHT22;68269;52.514;5.722;2023-06-14T15:35:40;30.10;39.90
78886;DHT22;68269;52.514;5.722;2023-06-14T15:38:10;30.10;39.90
78886;DHT22;68269;52.514;5.722;2023-06-14T15:40:39;30.10;39.80
78886;DHT22;68269;52.514;5.722;2023-06-14T15:43:08;30.20;39.70
78886;DHT22;68269;52.514;5.722;2023-06-14T15:45:38;30.10;39.70
78886;DHT22;68269;52.514;5.722;2023-06-14T15:48:09;30.10;39.80
78886;DHT22;68269;52.514;5.722;2023-06-14T15:50:42;30.00;39.90
78886;DHT22;68269;52.514;5.722;2023-06-14T15:53:12;30.10;40.00